createdAt,value
2016-08-01T00:00:11.493Z,0
2016-08-01T00:01:11.497Z,0
2016-08-01T00:02:11.501Z,0
2016-08-01T00:03:11.497Z,0
2016-08-01T00:04:11.500Z,0
2016-08-01T00:05:11.501Z,0
2016-08-01T00:06:11.509Z,0
2016-08-01T00:07:11.505Z,0
2016-08-01T00:08:11.502Z,0
2016-08-01T00:09:11.506Z,0
2016-08-01T00:10:11.501Z,0
2016-08-01T00:11:11.522Z,0
2016-08-01T00:12:11.506Z,0
2016-08-01T00:13:11.505Z,0
2016-08-01T00:14:11.514Z,0
2016-08-01T00:15:11.509Z,0
2016-08-01T00:16:11.513Z,0
2016-08-01T00:17:11.518Z,0
2016-08-01T00:18:11.514Z,0
2016-08-01T00:19:11.514Z,0
2016-08-01T00:20:11.514Z,0
2016-08-01T00:21:11.513Z,0
2016-08-01T00:22:11.530Z,0
2016-08-01T00:23:11.518Z,0
2016-08-01T00:24:11.519Z,0
2016-08-01T00:25:11.518Z,0
2016-08-01T00:26:11.523Z,0
2016-08-01T00:27:11.522Z,0
2016-08-01T00:28:11.530Z,0
2016-08-01T00:29:11.527Z,0
2016-08-01T00:30:11.527Z,0
2016-08-01T00:31:11.527Z,0
2016-08-01T00:32:11.531Z,0
2016-08-01T00:33:11.526Z,0
2016-08-01T00:34:11.526Z,0
2016-08-01T00:35:11.547Z,0
2016-08-01T00:36:11.531Z,0
2016-08-01T00:37:11.531Z,0
2016-08-01T00:38:11.531Z,0
2016-08-01T00:39:11.530Z,0
2016-08-01T00:40:11.535Z,0
2016-08-01T00:41:11.536Z,0
2016-08-01T00:42:11.536Z,0
2016-08-01T00:43:11.535Z,0
2016-08-01T00:44:11.543Z,0
2016-08-01T00:45:11.540Z,0
2016-08-01T00:46:11.538Z,0
2016-08-01T00:47:11.539Z,0
2016-08-01T00:48:11.543Z,0
2016-08-01T00:49:11.543Z,0
2016-08-01T00:50:11.552Z,0
2016-08-01T00:51:11.544Z,0
2016-08-01T00:52:11.559Z,0
2016-08-01T00:53:11.552Z,0
2016-08-01T00:54:11.552Z,0
2016-08-01T00:55:11.548Z,0
2016-08-01T00:56:11.552Z,0
2016-08-01T00:57:11.552Z,0
2016-08-01T00:58:11.552Z,0
2016-08-01T00:59:11.552Z,0
2016-08-01T01:00:11.556Z,0
2016-08-01T01:01:10.844Z,0
2016-08-01T01:02:11.555Z,0
2016-08-01T01:03:11.560Z,0
2016-08-01T01:04:11.556Z,0
2016-08-01T01:05:11.560Z,0
2016-08-01T01:06:11.560Z,0
2016-08-01T01:07:11.561Z,0
2016-08-01T01:08:11.563Z,0
2016-08-01T01:09:11.560Z,0
2016-08-01T01:10:11.569Z,0
2016-08-01T01:11:11.572Z,0
2016-08-01T01:12:11.564Z,0
2016-08-01T01:13:11.565Z,0
2016-08-01T01:14:11.569Z,0
2016-08-01T01:15:11.568Z,0
2016-08-01T01:16:11.568Z,0
2016-08-01T01:17:11.569Z,0
2016-08-01T01:18:11.569Z,0
2016-08-01T01:19:11.576Z,0
2016-08-01T01:20:11.572Z,0
2016-08-01T01:21:11.573Z,0
2016-08-01T01:22:11.574Z,0
2016-08-01T01:23:11.573Z,0
2016-08-01T01:24:11.577Z,0
2016-08-01T01:25:11.589Z,0
2016-08-01T01:26:11.577Z,0
2016-08-01T01:27:11.580Z,0
2016-08-01T01:28:11.581Z,0
2016-08-01T01:29:11.594Z,0
2016-08-01T01:30:11.581Z,0
2016-08-01T01:31:11.581Z,0
2016-08-01T01:32:11.582Z,0
2016-08-01T01:33:11.585Z,0
2016-08-01T01:34:11.584Z,0
2016-08-01T01:35:11.586Z,0
2016-08-01T01:36:11.585Z,0
2016-08-01T01:37:11.584Z,0
2016-08-01T01:38:11.589Z,0
2016-08-01T01:39:11.589Z,0
2016-08-01T01:40:11.593Z,0
2016-08-01T01:41:11.589Z,0
2016-08-01T01:42:10.873Z,0
2016-08-01T01:43:11.592Z,0
2016-08-01T01:44:11.594Z,0
2016-08-01T01:45:11.593Z,0
2016-08-01T01:46:11.593Z,0
2016-08-01T01:47:11.653Z,0
2016-08-01T01:48:11.598Z,0
2016-08-01T01:49:11.597Z,0
2016-08-01T01:50:11.598Z,0
2016-08-01T01:51:10.888Z,0
2016-08-01T01:52:11.602Z,0
2016-08-01T01:53:11.598Z,0
2016-08-01T01:54:10.882Z,0
2016-08-01T01:55:11.600Z,0
2016-08-01T01:56:11.613Z,0
2016-08-01T01:57:11.602Z,0
2016-08-01T01:58:11.606Z,0
2016-08-01T01:59:11.609Z,0
2016-08-01T02:00:11.607Z,0
2016-08-01T02:01:11.606Z,0
2016-08-01T02:02:11.606Z,0
2016-08-01T02:03:11.605Z,0
2016-08-01T02:04:11.609Z,0
2016-08-01T02:05:11.610Z,0
2016-08-01T02:06:11.609Z,0
2016-08-01T02:07:11.618Z,0
2016-08-01T02:08:11.613Z,0
2016-08-01T02:09:11.614Z,0
2016-08-01T02:10:11.622Z,0
2016-08-01T02:11:11.613Z,0
2016-08-01T02:12:11.613Z,0
2016-08-01T02:13:11.614Z,0
2016-08-01T02:14:11.610Z,0
2016-08-01T02:15:11.622Z,0
2016-08-01T02:16:11.621Z,0
2016-08-01T02:17:11.621Z,0
2016-08-01T02:18:11.622Z,0
2016-08-01T02:19:11.630Z,0
2016-08-01T02:20:11.621Z,0
2016-08-01T02:21:11.622Z,0
2016-08-01T02:22:10.898Z,0
2016-08-01T02:23:11.622Z,0
2016-08-01T02:24:11.626Z,0
2016-08-01T02:25:11.625Z,0
2016-08-01T02:26:11.625Z,0
2016-08-01T02:27:11.626Z,0
2016-08-01T02:28:11.626Z,0
2016-08-01T02:29:11.626Z,0
2016-08-01T02:30:11.633Z,0
2016-08-01T02:31:11.630Z,0
2016-08-01T02:32:11.630Z,0
2016-08-01T02:33:11.629Z,0
2016-08-01T02:34:11.634Z,0
2016-08-01T02:35:11.636Z,0
2016-08-01T02:36:11.634Z,0
2016-08-01T02:37:11.638Z,0
2016-08-01T02:38:11.643Z,0
2016-08-01T02:39:11.635Z,0
2016-08-01T02:40:11.634Z,0
2016-08-01T02:41:11.647Z,0
2016-08-01T02:42:11.638Z,0
2016-08-01T02:43:11.639Z,0
2016-08-01T02:44:10.918Z,0
2016-08-01T02:45:11.639Z,0
2016-08-01T02:46:11.655Z,0
2016-08-01T02:47:11.654Z,0
2016-08-01T02:48:11.643Z,0
2016-08-01T02:49:11.181Z,0
2016-08-01T02:50:11.643Z,0
2016-08-01T02:51:11.644Z,0
2016-08-01T02:52:11.647Z,0
2016-08-01T02:53:11.648Z,0
2016-08-01T02:54:11.647Z,0
2016-08-01T02:55:11.647Z,0
2016-08-01T02:56:11.647Z,0
2016-08-01T02:57:11.652Z,0
2016-08-01T02:58:11.660Z,0
2016-08-01T02:59:10.935Z,0
2016-08-01T03:00:11.668Z,0
2016-08-01T03:01:11.652Z,0
2016-08-01T03:02:11.652Z,0
2016-08-01T03:03:11.655Z,0
2016-08-01T03:04:10.264Z,0
2016-08-01T03:05:11.663Z,0
2016-08-01T03:06:11.668Z,0
2016-08-01T03:07:11.656Z,0
2016-08-01T03:08:10.939Z,0
2016-08-01T03:09:11.660Z,0
2016-08-01T03:10:11.660Z,0
2016-08-01T03:11:11.664Z,0
2016-08-01T03:12:11.660Z,0
2016-08-01T03:13:11.661Z,0
2016-08-01T03:14:11.660Z,0
2016-08-01T03:15:11.668Z,0
2016-08-01T03:16:11.672Z,0
2016-08-01T03:17:11.668Z,0
2016-08-01T03:18:11.664Z,0
2016-08-01T03:20:11.664Z,0
2016-08-01T03:21:11.668Z,0
2016-08-01T03:22:11.668Z,0
2016-08-01T03:23:11.672Z,0
2016-08-01T03:24:11.669Z,0
2016-08-01T03:25:10.949Z,0
2016-08-01T03:26:11.672Z,0
2016-08-01T03:27:11.680Z,0
2016-08-01T03:28:11.673Z,0
2016-08-01T03:29:11.673Z,0
2016-08-01T03:30:11.672Z,0
2016-08-01T03:31:10.953Z,0
2016-08-01T03:32:11.676Z,0
2016-08-01T03:33:11.676Z,0
2016-08-01T03:35:11.684Z,0
2016-08-01T03:36:11.676Z,0
2016-08-01T03:37:11.681Z,0
2016-08-01T03:38:11.677Z,0
2016-08-01T03:39:11.681Z,0
2016-08-01T03:40:11.681Z,0
2016-08-01T03:41:11.681Z,0
2016-08-01T03:42:11.685Z,0
2016-08-01T03:43:10.961Z,0
2016-08-01T03:44:11.683Z,0
2016-08-01T03:45:11.681Z,0
2016-08-01T03:46:11.685Z,0
2016-08-01T03:47:11.685Z,0
2016-08-01T03:48:11.685Z,0
2016-08-01T03:50:11.690Z,0
2016-08-01T03:51:11.689Z,0
2016-08-01T03:52:11.690Z,0
2016-08-01T03:53:11.690Z,0
2016-08-01T03:54:11.689Z,0
2016-08-01T03:55:11.690Z,0
2016-08-01T03:56:11.694Z,0
2016-08-01T03:57:10.974Z,0
2016-08-01T03:58:10.974Z,0
2016-08-01T03:59:11.694Z,0
2016-08-01T04:00:11.694Z,0
2016-08-01T04:01:11.695Z,0
2016-08-01T04:02:11.694Z,0
2016-08-01T04:03:11.690Z,0
2016-08-01T04:04:11.699Z,4
2016-08-01T04:05:11.703Z,4
2016-08-01T04:06:11.707Z,4
2016-08-01T04:07:11.699Z,4
2016-08-01T04:08:11.699Z,0
2016-08-01T04:09:11.711Z,0
2016-08-01T04:10:11.703Z,0
2016-08-01T04:11:11.703Z,4
2016-08-01T04:12:11.706Z,4
2016-08-01T04:13:11.727Z,4
2016-08-01T04:14:11.703Z,4
2016-08-01T04:15:11.707Z,4
2016-08-01T04:16:11.719Z,4
2016-08-01T04:17:11.711Z,4
2016-08-01T04:18:11.711Z,4
2016-08-01T04:19:11.707Z,4
2016-08-01T04:20:11.707Z,4
2016-08-01T04:21:11.714Z,4
2016-08-01T04:22:11.715Z,4
2016-08-01T04:23:11.711Z,4
2016-08-01T04:24:11.711Z,4
2016-08-01T04:25:11.715Z,4
2016-08-01T04:26:11.711Z,0
2016-08-01T04:27:11.710Z,4
2016-08-01T04:28:11.722Z,4
2016-08-01T04:29:11.722Z,4
2016-08-01T04:30:11.719Z,4
2016-08-01T04:31:11.723Z,4
2016-08-01T04:32:11.716Z,4
2016-08-01T04:33:11.715Z,4
2016-08-01T04:34:11.716Z,8
2016-08-01T04:35:11.719Z,8
2016-08-01T04:36:11.727Z,8
2016-08-01T04:37:11.735Z,4
2016-08-01T04:38:11.723Z,4
2016-08-01T04:39:11.720Z,8
2016-08-01T04:40:11.730Z,8
2016-08-01T04:41:11.722Z,8
2016-08-01T04:42:11.007Z,8
2016-08-01T04:43:11.728Z,8
2016-08-01T04:44:11.723Z,8
2016-08-01T04:45:11.731Z,8
2016-08-01T04:46:11.724Z,8
2016-08-01T04:47:11.723Z,12
2016-08-01T04:48:11.728Z,8
2016-08-01T04:49:11.728Z,12
2016-08-01T04:50:11.727Z,16
2016-08-01T04:51:11.732Z,12
2016-08-01T04:52:11.728Z,16
2016-08-01T04:53:11.727Z,12
2016-08-01T04:54:11.732Z,16
2016-08-01T04:55:11.732Z,16
2016-08-01T04:56:11.732Z,16
2016-08-01T04:57:11.732Z,16
2016-08-01T04:58:11.732Z,20
2016-08-01T04:59:11.731Z,20
2016-08-01T05:00:11.732Z,16
2016-08-01T05:01:11.736Z,16
2016-08-01T05:02:11.736Z,20
2016-08-01T05:03:11.738Z,16
2016-08-01T05:04:11.736Z,20
2016-08-01T05:05:11.740Z,20
2016-08-01T05:06:11.736Z,20
2016-08-01T05:07:12.141Z,20
2016-08-01T05:08:11.740Z,20
2016-08-01T05:09:11.741Z,24
2016-08-01T05:10:11.740Z,24
2016-08-01T05:11:11.740Z,24
2016-08-01T05:12:11.744Z,28
2016-08-01T05:13:11.741Z,28
2016-08-01T05:14:11.748Z,28
2016-08-01T05:15:11.749Z,32
2016-08-01T05:16:11.745Z,104
2016-08-01T05:17:11.759Z,36
2016-08-01T05:18:11.765Z,36
2016-08-01T05:19:11.744Z,40
2016-08-01T05:20:11.745Z,40
2016-08-01T05:21:11.749Z,40
2016-08-01T05:22:11.749Z,84
2016-08-01T05:23:11.748Z,44
2016-08-01T05:24:11.749Z,52
2016-08-01T05:25:11.753Z,64
2016-08-01T05:26:11.754Z,92
2016-08-01T05:27:11.753Z,260
2016-08-01T05:28:11.749Z,308
2016-08-01T05:29:11.756Z,316
2016-08-01T05:30:11.754Z,316
2016-08-01T05:31:11.757Z,312
2016-08-01T05:32:11.754Z,272
2016-08-01T05:33:11.758Z,116
2016-08-01T05:34:11.758Z,96
2016-08-01T05:35:11.757Z,100
2016-08-01T05:36:11.761Z,108
2016-08-01T05:37:11.757Z,124
2016-08-01T05:38:11.761Z,140
2016-08-01T05:39:11.761Z,112
2016-08-01T05:40:11.766Z,96
2016-08-01T05:41:11.761Z,100
2016-08-01T05:42:11.761Z,124
2016-08-01T05:43:11.765Z,232
2016-08-01T05:44:11.771Z,292
2016-08-01T05:45:11.765Z,360
2016-08-01T05:46:11.766Z,376
2016-08-01T05:47:11.766Z,372
2016-08-01T05:48:11.765Z,376
2016-08-01T05:49:11.766Z,368
2016-08-01T05:50:11.051Z,168
2016-08-01T05:51:11.769Z,148
2016-08-01T05:52:11.770Z,128
2016-08-01T05:53:11.770Z,116
2016-08-01T05:54:11.774Z,112
2016-08-01T05:55:11.778Z,96
2016-08-01T05:56:11.054Z,96
2016-08-01T05:57:11.774Z,96
2016-08-01T05:58:11.774Z,96
2016-08-01T05:59:11.778Z,120
2016-08-01T06:00:11.778Z,96
2016-08-01T06:01:11.779Z,92
2016-08-01T06:02:11.778Z,84
2016-08-01T06:03:11.783Z,80
2016-08-01T06:04:11.791Z,80
2016-08-01T06:05:11.789Z,76
2016-08-01T06:06:11.782Z,72
2016-08-01T06:07:11.782Z,72
2016-08-01T06:08:11.786Z,72
2016-08-01T06:09:11.786Z,68
2016-08-01T06:10:11.787Z,64
2016-08-01T06:11:11.788Z,64
2016-08-01T06:12:11.786Z,64
2016-08-01T06:13:11.788Z,60
2016-08-01T06:14:11.791Z,60
2016-08-01T06:15:11.791Z,56
2016-08-01T06:16:11.800Z,60
2016-08-01T06:17:11.790Z,56
2016-08-01T06:18:11.790Z,56
2016-08-01T06:19:11.790Z,56
2016-08-01T06:20:11.795Z,56
2016-08-01T06:21:11.794Z,56
2016-08-01T06:22:11.795Z,56
2016-08-01T06:23:11.795Z,60
2016-08-01T06:24:11.799Z,56
2016-08-01T06:25:11.799Z,60
2016-08-01T06:26:11.802Z,60
2016-08-01T06:27:11.810Z,60
2016-08-01T06:28:11.799Z,60
2016-08-01T06:29:11.820Z,64
2016-08-01T06:30:11.807Z,64
2016-08-01T06:31:11.808Z,68
2016-08-01T06:32:11.802Z,64
2016-08-01T06:33:11.803Z,68
2016-08-01T06:34:11.806Z,72
2016-08-01T06:35:11.807Z,72
2016-08-01T06:36:11.807Z,76
2016-08-01T06:37:11.111Z,76
2016-08-01T06:38:11.811Z,80
2016-08-01T06:39:11.812Z,84
2016-08-01T06:40:11.811Z,88
2016-08-01T06:41:11.811Z,108
2016-08-01T06:42:11.811Z,100
2016-08-01T06:43:11.812Z,108
2016-08-01T06:44:11.812Z,116
2016-08-01T06:45:11.820Z,172
2016-08-01T06:46:11.816Z,188
2016-08-01T06:47:11.814Z,136
2016-08-01T06:48:11.816Z,436
2016-08-01T06:49:11.820Z,436
2016-08-01T06:50:11.820Z,428
2016-08-01T06:51:11.820Z,428
2016-08-01T06:52:11.820Z,428
2016-08-01T06:53:11.820Z,428
2016-08-01T06:54:11.828Z,424
2016-08-01T06:55:11.824Z,420
2016-08-01T06:56:11.823Z,416
2016-08-01T06:57:11.824Z,412
2016-08-01T06:58:11.840Z,408
2016-08-01T06:59:11.827Z,408
2016-08-01T07:00:11.827Z,412
2016-08-01T07:01:11.828Z,408
2016-08-01T07:02:11.833Z,404
2016-08-01T07:03:11.828Z,404
2016-08-01T07:04:11.836Z,396
2016-08-01T07:05:11.832Z,396
2016-08-01T07:06:11.832Z,396
2016-08-01T07:07:11.836Z,388
2016-08-01T07:08:11.836Z,388
2016-08-01T07:09:11.840Z,388
2016-08-01T07:10:11.841Z,384
2016-08-01T07:11:11.840Z,384
2016-08-01T07:12:11.841Z,380
2016-08-01T07:13:11.840Z,372
2016-08-01T07:14:11.845Z,348
2016-08-01T07:15:11.845Z,344
2016-08-01T07:16:11.844Z,368
2016-08-01T07:17:11.845Z,352
2016-08-01T07:18:11.845Z,364
2016-08-01T07:19:11.853Z,376
2016-08-01T07:20:11.849Z,368
2016-08-01T07:21:11.853Z,356
2016-08-01T07:22:11.854Z,344
2016-08-01T07:23:11.853Z,336
2016-08-01T07:24:11.852Z,352
2016-08-01T07:25:11.861Z,352
2016-08-01T07:26:11.853Z,352
2016-08-01T07:27:11.860Z,352
2016-08-01T07:28:11.865Z,360
2016-08-01T07:29:11.857Z,356
2016-08-01T07:30:11.861Z,352
2016-08-01T07:31:11.861Z,356
2016-08-01T07:32:11.861Z,340
2016-08-01T07:33:11.862Z,340
2016-08-01T07:34:11.861Z,352
2016-08-01T07:35:11.869Z,344
2016-08-01T07:36:11.869Z,348
2016-08-01T07:37:11.865Z,348
2016-08-01T07:38:11.869Z,344
2016-08-01T07:39:11.869Z,344
2016-08-01T07:40:11.870Z,344
2016-08-01T07:41:11.873Z,344
2016-08-01T07:42:11.885Z,348
2016-08-01T07:43:11.886Z,340
2016-08-01T07:44:11.881Z,340
2016-08-01T07:45:11.877Z,340
2016-08-01T07:46:12.466Z,340
2016-08-01T07:47:12.194Z,336
2016-08-01T07:48:11.893Z,304
2016-08-01T07:49:11.882Z,336
2016-08-01T07:50:11.421Z,336
2016-08-01T07:51:11.981Z,348
2016-08-01T07:52:11.886Z,344
2016-08-01T07:53:12.078Z,344
2016-08-01T07:54:11.889Z,344
2016-08-01T07:55:11.890Z,340
2016-08-01T07:56:11.888Z,340
2016-08-01T07:57:11.894Z,292
2016-08-01T07:58:11.897Z,332
2016-08-01T07:59:11.894Z,332
2016-08-01T08:00:11.898Z,332
2016-08-01T08:01:11.897Z,324
2016-08-01T08:02:11.897Z,312
2016-08-01T08:03:11.902Z,308
2016-08-01T08:04:11.902Z,280
2016-08-01T08:05:10.518Z,288
2016-08-01T08:06:11.906Z,320
2016-08-01T08:07:11.906Z,284
2016-08-01T08:08:11.914Z,340
2016-08-01T08:09:11.910Z,332
2016-08-01T08:10:11.926Z,320
2016-08-01T08:11:11.915Z,316
2016-08-01T08:12:11.915Z,300
2016-08-01T08:13:11.914Z,240
2016-08-01T08:14:11.943Z,272
2016-08-01T08:15:11.919Z,268
2016-08-01T08:16:11.922Z,248
2016-08-01T08:17:11.923Z,288
2016-08-01T08:18:11.923Z,304
2016-08-01T08:19:11.925Z,308
2016-08-01T08:21:11.934Z,328
2016-08-01T08:22:11.938Z,332
2016-08-01T08:23:11.929Z,332
2016-08-01T08:24:11.934Z,332
2016-08-01T08:25:11.942Z,332
2016-08-01T08:26:11.222Z,332
2016-08-01T08:27:11.940Z,312
2016-08-01T08:28:11.938Z,324
2016-08-01T08:29:11.943Z,324
2016-08-01T08:30:11.947Z,308
2016-08-01T08:31:11.943Z,284
2016-08-01T08:32:11.947Z,296
2016-08-01T08:33:11.947Z,288
2016-08-01T08:34:11.960Z,276
2016-08-01T08:35:11.951Z,268
2016-08-01T08:36:11.955Z,260
2016-08-01T08:37:11.956Z,296
2016-08-01T08:38:11.955Z,288
2016-08-01T08:39:11.959Z,296
2016-08-01T08:40:11.958Z,296
2016-08-01T08:41:11.963Z,264
2016-08-01T08:42:11.963Z,156
2016-08-01T08:43:11.963Z,320
2016-08-01T08:44:11.967Z,316
2016-08-01T08:45:11.971Z,168
2016-08-01T08:46:11.979Z,316
2016-08-01T08:47:11.970Z,304
2016-08-01T08:48:11.976Z,280
2016-08-01T08:49:11.975Z,232
2016-08-01T08:50:11.979Z,264
2016-08-01T08:51:11.987Z,284
2016-08-01T08:52:11.979Z,284
2016-08-01T08:53:11.984Z,272
2016-08-01T08:54:11.984Z,236
2016-08-01T08:55:11.991Z,148
2016-08-01T08:56:11.996Z,100
2016-08-01T08:57:11.992Z,92
2016-08-01T08:58:11.995Z,88
2016-08-01T08:59:11.996Z,80
2016-08-01T09:00:11.995Z,80
2016-08-01T09:01:12.015Z,84
2016-08-01T09:02:11.999Z,84
2016-08-01T09:03:12.000Z,80
2016-08-01T09:04:12.004Z,80
2016-08-01T09:05:12.004Z,84
2016-08-01T09:06:12.019Z,84
2016-08-01T09:07:12.020Z,88
2016-08-01T09:08:12.008Z,88
2016-08-01T09:09:12.020Z,88
2016-08-01T09:10:12.012Z,88
2016-08-01T09:11:12.016Z,84
2016-08-01T09:12:12.016Z,80
2016-08-01T09:13:12.032Z,80
2016-08-01T09:14:12.017Z,80
2016-08-01T09:15:12.020Z,84
2016-08-01T09:16:12.024Z,84
2016-08-01T09:17:12.029Z,84
2016-08-01T09:18:12.028Z,88
2016-08-01T09:19:12.036Z,84
2016-08-01T09:20:12.032Z,84
2016-08-01T09:21:12.048Z,84
2016-08-01T09:22:12.032Z,84
2016-08-01T09:23:12.036Z,88
2016-08-01T09:24:12.036Z,92
2016-08-01T09:25:12.040Z,92
2016-08-01T09:26:12.041Z,92
2016-08-01T09:27:12.056Z,88
2016-08-01T09:28:12.049Z,88
2016-08-01T09:29:12.052Z,88
2016-08-01T09:30:12.049Z,92
2016-08-01T09:31:12.049Z,88
2016-08-01T09:32:12.053Z,92
2016-08-01T09:33:12.052Z,96
2016-08-01T09:34:12.057Z,96
2016-08-01T09:35:12.057Z,100
2016-08-01T09:36:11.340Z,100
2016-08-01T09:37:12.065Z,104
2016-08-01T09:38:12.073Z,108
2016-08-01T09:39:12.077Z,108
2016-08-01T09:40:12.065Z,104
2016-08-01T09:41:12.061Z,96
2016-08-01T09:42:12.069Z,96
2016-08-01T09:43:12.069Z,96
2016-08-01T09:44:12.073Z,104
2016-08-01T09:45:12.084Z,124
2016-08-01T09:46:12.077Z,204
2016-08-01T09:47:12.081Z,240
2016-08-01T09:48:12.081Z,236
2016-08-01T09:49:12.081Z,232
2016-08-01T09:50:12.082Z,184
2016-08-01T09:51:12.086Z,220
2016-08-01T09:52:12.084Z,144
2016-08-01T09:53:12.094Z,148
2016-08-01T09:54:12.090Z,136
2016-08-01T09:55:12.107Z,124
2016-08-01T09:56:12.092Z,124
2016-08-01T09:57:12.094Z,104
2016-08-01T09:58:12.098Z,92
2016-08-01T09:59:12.114Z,84
2016-08-01T10:00:12.098Z,80
2016-08-01T10:01:12.102Z,84
2016-08-01T10:02:12.102Z,84
2016-08-01T10:03:12.514Z,88
2016-08-01T10:04:12.130Z,108
2016-08-01T10:05:12.114Z,88
2016-08-01T10:06:12.110Z,88
2016-08-01T10:07:12.110Z,84
2016-08-01T10:08:12.122Z,72
2016-08-01T10:09:12.118Z,68
2016-08-01T10:10:12.129Z,68
2016-08-01T10:11:12.117Z,68
2016-08-01T10:12:11.402Z,68
2016-08-01T10:13:12.122Z,68
2016-08-01T10:14:12.122Z,72
2016-08-01T10:15:11.406Z,72
2016-08-01T10:16:12.127Z,80
2016-08-01T10:17:12.126Z,80
2016-08-01T10:18:12.130Z,80
2016-08-01T10:19:12.138Z,84
2016-08-01T10:20:12.138Z,96
2016-08-01T10:21:12.134Z,112
2016-08-01T10:22:12.138Z,88
2016-08-01T10:23:12.139Z,84
2016-08-01T10:24:12.147Z,96
2016-08-01T10:25:12.142Z,116
2016-08-01T10:26:12.143Z,96
2016-08-01T10:27:12.146Z,128
2016-08-01T10:28:12.146Z,120
2016-08-01T10:29:12.151Z,164
2016-08-01T10:30:12.155Z,148
2016-08-01T10:31:12.151Z,196
2016-08-01T10:32:12.154Z,228
2016-08-01T10:33:11.443Z,200
2016-08-01T10:34:12.159Z,224
2016-08-01T10:35:12.158Z,196
2016-08-01T10:36:12.159Z,224
2016-08-01T10:37:12.162Z,192
2016-08-01T10:38:12.170Z,208
2016-08-01T10:39:12.171Z,212
2016-08-01T10:40:12.179Z,200
2016-08-01T10:41:12.170Z,200
2016-08-01T10:42:12.171Z,196
2016-08-01T10:43:12.171Z,192
2016-08-01T10:44:12.175Z,188
2016-08-01T10:45:12.176Z,188
2016-08-01T10:46:12.179Z,184
2016-08-01T10:47:12.183Z,188
2016-08-01T10:48:12.179Z,184
2016-08-01T10:49:12.182Z,184
2016-08-01T10:50:12.188Z,180
2016-08-01T10:51:12.202Z,184
2016-08-01T10:52:12.191Z,184
2016-08-01T10:53:12.187Z,184
2016-08-01T10:54:12.215Z,184
2016-08-01T10:55:12.191Z,184
2016-08-01T10:56:12.191Z,184
2016-08-01T10:57:12.196Z,184
2016-08-01T10:58:12.195Z,188
2016-08-01T10:59:12.200Z,188
2016-08-01T11:00:12.199Z,188
2016-08-01T11:01:12.211Z,192
2016-08-01T11:02:12.214Z,188
2016-08-01T11:03:12.308Z,192
2016-08-01T11:04:12.215Z,188
2016-08-01T11:05:12.208Z,192
2016-08-01T11:06:12.216Z,188
2016-08-01T11:07:12.212Z,188
2016-08-01T11:08:12.220Z,188
2016-08-01T11:09:12.216Z,184
2016-08-01T11:10:12.220Z,184
2016-08-01T11:11:12.220Z,188
2016-08-01T11:12:12.220Z,188
2016-08-01T11:13:12.224Z,188
2016-08-01T11:14:12.224Z,172
2016-08-01T11:15:12.224Z,184
2016-08-01T11:16:12.229Z,80
2016-08-01T11:17:12.228Z,188
2016-08-01T11:18:12.232Z,180
2016-08-01T11:19:12.236Z,184
2016-08-01T11:20:12.236Z,180
2016-08-01T11:21:12.236Z,180
2016-08-01T11:22:12.236Z,184
2016-08-01T11:23:12.248Z,184
2016-08-01T11:24:12.245Z,180
2016-08-01T11:25:12.248Z,184
2016-08-01T11:26:12.244Z,176
2016-08-01T11:27:12.248Z,176
2016-08-01T11:28:12.259Z,172
2016-08-01T11:29:12.248Z,172
2016-08-01T11:30:11.533Z,172
2016-08-01T11:31:12.260Z,172
2016-08-01T11:32:12.257Z,172
2016-08-01T11:33:11.553Z,172
2016-08-01T11:34:12.253Z,176
2016-08-01T11:35:12.261Z,168
2016-08-01T11:36:12.261Z,180
2016-08-01T11:37:12.269Z,156
2016-08-01T11:38:12.265Z,180
2016-08-01T11:39:12.269Z,184
2016-08-01T11:40:12.269Z,184
2016-08-01T11:41:12.277Z,180
2016-08-01T11:42:12.273Z,176
2016-08-01T11:43:12.273Z,176
2016-08-01T11:44:12.277Z,180
2016-08-01T11:45:12.277Z,84
2016-08-01T11:46:12.282Z,184
2016-08-01T11:47:12.281Z,188
2016-08-01T11:48:12.281Z,140
2016-08-01T11:49:12.281Z,116
2016-08-01T11:50:12.286Z,124
2016-08-01T11:51:12.293Z,132
2016-08-01T11:52:12.293Z,136
2016-08-01T11:53:12.290Z,164
2016-08-01T11:54:12.294Z,120
2016-08-01T11:55:12.293Z,116
2016-08-01T11:56:12.297Z,112
2016-08-01T11:57:12.298Z,108
2016-08-01T11:58:12.301Z,108
2016-08-01T11:59:12.302Z,116
2016-08-01T12:00:12.314Z,112
2016-08-01T12:01:12.305Z,112
2016-08-01T12:02:12.310Z,112
2016-08-01T12:03:12.310Z,112
2016-08-01T12:04:12.309Z,108
2016-08-01T12:05:12.322Z,104
2016-08-01T12:06:12.314Z,108
2016-08-01T12:07:12.322Z,104
2016-08-01T12:08:11.598Z,104
2016-08-01T12:09:12.318Z,104
2016-08-01T12:10:12.322Z,104
2016-08-01T12:11:12.329Z,116
2016-08-01T12:12:12.326Z,100
2016-08-01T12:13:12.330Z,180
2016-08-01T12:14:12.326Z,168
2016-08-01T12:15:12.330Z,148
2016-08-01T12:16:12.330Z,140
2016-08-01T12:17:12.334Z,164
2016-08-01T12:18:12.334Z,164
2016-08-01T12:19:12.337Z,156
2016-08-01T12:20:12.346Z,156
2016-08-01T12:21:11.410Z,156
2016-08-01T12:22:12.342Z,152
2016-08-01T12:23:13.038Z,148
2016-08-01T12:26:12.018Z,144
2016-08-01T12:26:23.733Z,140
2016-08-01T12:27:24.459Z,140
2016-08-01T12:28:24.458Z,140
2016-08-01T12:29:24.458Z,140
2016-08-01T12:30:24.462Z,140
2016-08-01T12:31:24.462Z,136
2016-08-01T12:32:24.462Z,140
2016-08-01T12:33:24.467Z,140
2016-08-01T12:34:24.470Z,136
2016-08-01T12:35:24.470Z,136
2016-08-01T12:36:24.470Z,132
2016-08-01T12:37:24.470Z,132
2016-08-01T12:38:24.474Z,132
2016-08-01T12:39:24.474Z,132
2016-08-01T12:40:24.479Z,132
2016-08-01T12:41:24.478Z,128
2016-08-01T12:42:24.486Z,128
2016-08-01T12:43:24.482Z,128
2016-08-01T12:44:24.482Z,124
2016-08-01T12:45:24.491Z,128
2016-08-01T12:46:24.487Z,124
2016-08-01T12:47:24.498Z,124
2016-08-01T12:48:24.491Z,120
2016-08-01T12:49:24.494Z,120
2016-08-01T12:50:24.494Z,120
2016-08-01T12:51:23.106Z,120
2016-08-01T12:52:24.499Z,120
2016-08-01T12:53:24.518Z,116
2016-08-01T12:54:24.511Z,116
2016-08-01T12:55:24.503Z,116
2016-08-01T12:56:24.506Z,116
2016-08-01T12:57:24.519Z,116
2016-08-01T12:58:24.507Z,112
2016-08-01T12:59:24.508Z,116
2016-08-01T13:00:24.511Z,112
2016-08-01T13:01:24.515Z,112
2016-08-01T13:02:24.515Z,116
2016-08-01T13:03:24.515Z,116
2016-08-01T13:04:24.527Z,112
2016-08-01T13:05:24.519Z,112
2016-08-01T13:06:23.135Z,112
2016-08-01T13:07:24.539Z,112
2016-08-01T13:08:24.544Z,112
2016-08-01T13:09:24.538Z,112
2016-08-01T13:10:24.526Z,112
2016-08-01T13:11:24.539Z,112
2016-08-01T13:12:24.532Z,112
2016-08-01T13:13:24.532Z,112
2016-08-01T13:14:24.539Z,108
2016-08-01T13:15:24.544Z,108
2016-08-01T13:16:24.539Z,108
2016-08-01T13:17:24.547Z,112
2016-08-01T13:18:24.544Z,88
2016-08-01T13:19:24.544Z,60
2016-08-01T13:20:24.544Z,72
2016-08-01T13:22:24.548Z,108
2016-08-01T13:23:24.560Z,112
2016-08-01T13:24:24.552Z,108
2016-08-01T13:25:24.556Z,104
2016-08-01T13:26:24.556Z,108
2016-08-01T13:27:24.559Z,104
2016-08-01T13:28:24.560Z,104
2016-08-01T13:29:24.568Z,56
2016-08-01T13:30:24.564Z,92
2016-08-01T13:31:24.564Z,100
2016-08-01T13:32:24.572Z,100
2016-08-01T13:33:24.574Z,104
2016-08-01T13:34:24.572Z,104
2016-08-01T13:35:24.573Z,100
2016-08-01T13:37:24.576Z,100
2016-08-01T13:38:24.575Z,100
2016-08-01T13:39:24.581Z,100
2016-08-01T13:40:24.579Z,100
2016-08-01T13:41:24.584Z,100
2016-08-01T13:42:24.584Z,96
2016-08-01T13:43:24.587Z,84
2016-08-01T13:44:24.592Z,100
2016-08-01T13:45:24.587Z,100
2016-08-01T13:46:24.592Z,64
2016-08-01T13:47:24.597Z,60
2016-08-01T13:48:24.596Z,60
2016-08-01T13:49:24.596Z,100
2016-08-01T13:50:24.596Z,96
2016-08-01T13:52:24.600Z,104
2016-08-01T13:53:24.604Z,108
2016-08-01T13:54:24.605Z,104
2016-08-01T13:55:24.608Z,72
2016-08-01T13:56:24.609Z,80
2016-08-01T13:57:24.609Z,80
2016-08-01T13:58:24.612Z,76
2016-08-01T13:59:24.612Z,96
2016-08-01T14:00:24.613Z,108
2016-08-01T14:01:24.616Z,108
2016-08-01T14:02:24.621Z,116
2016-08-01T14:03:24.673Z,120
2016-08-01T14:04:24.620Z,120
2016-08-01T14:05:24.625Z,120
2016-08-01T14:07:24.625Z,104
2016-08-01T14:08:24.629Z,112
2016-08-01T14:09:24.637Z,112
2016-08-01T14:10:24.633Z,112
2016-08-01T14:11:24.632Z,92
2016-08-01T14:12:24.637Z,96
2016-08-01T14:13:24.637Z,104
2016-08-01T14:14:24.637Z,88
2016-08-01T14:15:24.641Z,100
2016-08-01T14:16:24.645Z,104
2016-08-01T14:17:24.653Z,96
2016-08-01T14:18:24.645Z,92
2016-08-01T14:19:24.645Z,96
2016-08-01T14:20:24.645Z,92